Time;durP1;ratioP1;P1;durP2;ratioP2;P2;SDS_P1;SDS_P2;PMS_P1;PMS_P2;Temp;Humidity;BMP_temperature;BMP_pressure;BME280_temperature;BME280_humidity;BME280_pressure;Samples;Min_cycle;Max_cycle;Signal;HPM_P1;HPM_P2
2021/06/29 00:00:33;;;;;;;26.75;6.80;;;16.50;99.90;;;;;;5047526;28;20123;-83
2021/06/29 00:03:05;;;;;;;26.60;6.85;;;16.40;99.90;;;;;;5064901;28;20068;-82
2021/06/29 00:05:31;;;;;;;23.00;6.82;;;16.50;99.90;;;;;;5047647;28;20087;-82
2021/06/29 00:07:58;;;;;;;24.05;6.78;;;16.50;99.90;;;;;;5042572;28;20063;-82
2021/06/29 00:10:27;;;;;;;26.55;6.60;;;16.50;99.90;;;;;;5044645;28;20033;-83
2021/06/29 00:12:53;;;;;;;27.83;6.38;;;16.50;99.90;;;;;;5051238;28;20059;-83
2021/06/29 00:15:20;;;;;;;23.60;6.80;;;16.50;99.90;;;;;;5051078;28;20041;-83
2021/06/29 00:17:46;;;;;;;20.20;6.40;;;16.50;99.90;;;;;;5047172;28;20041;-83
2021/06/29 00:20:13;;;;;;;30.85;7.18;;;16.50;99.90;;;;;;5060033;28;20029;-82
2021/06/29 00:22:39;;;;;;;29.45;6.75;;;16.50;99.90;;;;;;5045268;28;20044;-83
2021/06/29 00:25:05;;;;;;;20.75;6.15;;;16.50;99.90;;;;;;5047686;28;20356;-82
2021/06/29 00:27:31;;;;;;;26.55;6.88;;;16.50;99.90;;;;;;5048699;28;20039;-83
2021/06/29 00:29:57;;;;;;;18.85;5.53;;;16.50;99.90;;;;;;5043439;28;20037;-82
2021/06/29 00:32:22;;;;;;;28.75;6.32;;;16.50;99.90;;;;;;5046955;28;20436;-82
2021/06/29 00:34:48;;;;;;;24.05;6.03;;;16.50;99.90;;;;;;5046537;28;20036;-83
2021/06/29 00:37:14;;;;;;;25.95;6.45;;;16.50;99.90;;;;;;5065226;28;20041;-83
2021/06/29 00:39:40;;;;;;;25.83;6.22;;;16.40;99.90;;;;;;5048318;28;20500;-83
2021/06/29 00:42:06;;;;;;;26.92;6.78;;;16.50;99.90;;;;;;5044446;28;20041;-83
2021/06/29 00:44:32;;;;;;;28.50;6.85;;;16.40;99.90;;;;;;5049218;28;20063;-83
2021/06/29 00:46:58;;;;;;;29.52;6.30;;;16.40;99.90;;;;;;5043507;28;20495;-82
2021/06/29 00:49:24;;;;;;;27.95;6.38;;;16.50;99.90;;;;;;5047485;28;20049;-83
2021/06/29 00:51:51;;;;;;;27.90;6.60;;;16.40;99.90;;;;;;5049914;28;20033;-82
2021/06/29 00:54:17;;;;;;;29.60;6.43;;;16.40;99.90;;;;;;5047985;28;20055;-83
2021/06/29 00:56:46;;;;;;;28.75;6.28;;;16.40;99.90;;;;;;5044588;28;20065;-82
2021/06/29 00:59:12;;;;;;;25.73;5.95;;;16.40;99.90;;;;;;5047392;28;20130;-83
2021/06/29 01:01:38;;;;;;;29.10;6.03;;;16.40;99.90;;;;;;5046665;28;20064;-82
2021/06/29 01:04:06;;;;;;;27.30;6.55;;;16.40;99.90;;;;;;5066549;28;20051;-83
2021/06/29 01:06:32;;;;;;;30.85;7.50;;;16.40;99.90;;;;;;5047145;28;20043;-83
2021/06/29 01:08:58;;;;;;;30.83;6.88;;;16.40;99.90;;;;;;5048144;28;20231;-83
2021/06/29 01:11:24;;;;;;;30.63;6.63;;;16.40;99.90;;;;;;5046351;28;20550;-83
2021/06/29 01:13:50;;;;;;;34.45;7.60;;;16.40;99.90;;;;;;5041542;28;20047;-83
2021/06/29 01:16:16;;;;;;;33.88;6.68;;;16.50;99.90;;;;;;5037147;28;20048;-84
2021/06/29 01:18:44;;;;;;;35.85;7.30;;;16.50;99.90;;;;;;5029401;28;20077;-83
2021/06/29 01:21:19;;;;;;;37.97;7.47;;;16.50;99.90;;;;;;5041846;28;20038;-82
2021/06/29 01:23:50;;;;;;;29.10;7.15;;;16.50;99.90;;;;;;5048341;28;20040;-83
2021/06/29 01:26:26;;;;;;;38.88;7.97;;;16.50;99.90;;;;;;5045701;28;20037;-83
2021/06/29 01:31:19;;;;;;;38.63;7.60;;;16.50;99.90;;;;;;5047405;28;20069;-82
2021/06/29 01:33:47;;;;;;;26.27;6.72;;;16.60;99.90;;;;;;5062630;28;20044;-82
2021/06/29 01:36:17;;;;;;;34.75;7.90;;;16.60;99.90;;;;;;5043671;28;20033;-83
2021/06/29 01:38:44;;;;;;;40.00;7.75;;;16.60;99.90;;;;;;5042991;28;20033;-82
2021/06/29 01:41:12;;;;;;;31.45;8.95;;;16.60;99.90;;;;;;5045944;28;20048;-82
2021/06/29 01:44:00;;;;;;;31.33;7.65;;;16.50;99.90;;;;;;5050422;28;20036;-83
2021/06/29 01:46:30;;;;;;;34.03;7.72;;;16.50;99.90;;;;;;5046502;28;20065;-84
2021/06/29 01:48:56;;;;;;;31.08;7.47;;;16.50;99.90;;;;;;5043576;28;20131;-83
2021/06/29 01:51:22;;;;;;;28.65;7.78;;;16.50;99.90;;;;;;5049520;28;20060;-84
2021/06/29 01:53:49;;;;;;;34.00;8.82;;;16.50;99.90;;;;;;5048060;28;20546;-83
2021/06/29 01:56:16;;;;;;;33.58;7.90;;;16.60;99.90;;;;;;5048056;28;20040;-83
2021/06/29 01:58:47;;;;;;;35.25;8.32;;;16.60;99.90;;;;;;5049146;28;20132;-84
2021/06/29 02:01:12;;;;;;;37.90;9.20;;;16.60;99.90;;;;;;5047830;28;20047;-84
2021/06/29 02:03:38;;;;;;;34.97;8.35;;;16.60;99.90;;;;;;5027658;28;20127;-83
2021/06/29 02:06:04;;;;;;;37.72;9.35;;;16.60;99.90;;;;;;5049084;28;20060;-83
2021/06/29 02:08:30;;;;;;;31.02;8.75;;;16.60;99.90;;;;;;5035514;28;20550;-83
2021/06/29 02:10:56;;;;;;;34.30;9.07;;;16.60;99.90;;;;;;5050530;28;20037;-83
2021/06/29 02:13:22;;;;;;;32.72;8.48;;;16.60;99.90;;;;;;5057576;28;21314;-82
2021/06/29 02:15:48;;;;;;;46.35;10.38;;;16.60;99.90;;;;;;5049339;28;20068;-84
2021/06/29 02:18:15;;;;;;;40.78;9.35;;;16.70;99.90;;;;;;5030314;28;20065;-84
2021/06/29 02:20:41;;;;;;;40.63;9.68;;;16.60;99.90;;;;;;5048222;28;20032;-83
2021/06/29 02:23:07;;;;;;;37.20;9.60;;;16.70;99.90;;;;;;5050410;28;20388;-84
2021/06/29 02:25:33;;;;;;;42.63;9.90;;;16.70;99.90;;;;;;5029593;28;20041;-83
2021/06/29 02:27:59;;;;;;;45.30;9.68;;;16.70;99.90;;;;;;5031960;28;20148;-84
2021/06/29 02:30:25;;;;;;;35.42;9.30;;;16.70;99.90;;;;;;5029378;28;20384;-83
2021/06/29 02:32:51;;;;;;;36.58;9.82;;;16.70;99.90;;;;;;5046697;28;20045;-83
2021/06/29 02:35:17;;;;;;;44.65;9.45;;;16.70;99.90;;;;;;5037140;28;21133;-84
2021/06/29 02:37:43;;;;;;;45.90;10.23;;;16.70;99.90;;;;;;5032273;28;20124;-83
2021/06/29 02:40:10;;;;;;;48.55;11.00;;;16.70;99.90;;;;;;5030224;28;20044;-83
2021/06/29 02:42:37;;;;;;;49.47;11.10;;;16.70;99.90;;;;;;5044748;28;20124;-84
2021/06/29 02:45:06;;;;;;;47.88;11.18;;;16.70;99.90;;;;;;5045551;28;20107;-83
2021/06/29 02:47:37;;;;;;;45.17;10.73;;;16.70;99.90;;;;;;5062564;28;20040;-83
2021/06/29 02:50:05;;;;;;;47.88;10.80;;;16.70;99.90;;;;;;5047005;28;20044;-83
2021/06/29 02:52:32;;;;;;;56.22;11.70;;;16.70;99.90;;;;;;5047155;28;20042;-84
2021/06/29 02:54:59;;;;;;;43.55;10.93;;;16.80;99.90;;;;;;5051496;28;20033;-84
2021/06/29 02:57:25;;;;;;;57.85;12.10;;;16.80;99.90;;;;;;5054108;28;20044;-84
2021/06/29 02:59:51;;;;;;;47.60;11.20;;;16.80;99.90;;;;;;5031577;28;20146;-84
2021/06/29 03:02:17;;;;;;;56.30;12.43;;;16.80;99.90;;;;;;5048440;28;20049;-83
2021/06/29 03:04:43;;;;;;;53.00;11.38;;;16.80;99.90;;;;;;5055058;28;20033;-83
2021/06/29 03:07:09;;;;;;;55.72;11.82;;;16.80;99.90;;;;;;5051364;28;20068;-84
2021/06/29 03:09:34;;;;;;;54.38;11.45;;;16.80;99.90;;;;;;5053653;28;20429;-84
2021/06/29 03:12:01;;;;;;;63.78;13.40;;;16.80;99.90;;;;;;5050824;28;20090;-84
2021/06/29 03:14:26;;;;;;;64.38;12.20;;;16.80;99.90;;;;;;5045703;28;20098;-84
2021/06/29 03:16:53;;;;;;;60.80;12.63;;;16.80;99.90;;;;;;5033863;28;20049;-84
2021/06/29 03:19:19;;;;;;;62.03;11.90;;;16.90;99.90;;;;;;5046731;28;20028;-84
2021/06/29 03:21:45;;;;;;;60.08;11.35;;;16.90;99.90;;;;;;5028895;28;20036;-83
2021/06/29 03:24:11;;;;;;;50.60;11.25;;;16.90;99.90;;;;;;5053338;28;20045;-84
2021/06/29 03:26:38;;;;;;;55.17;12.25;;;16.90;99.90;;;;;;5031411;28;20044;-83
2021/06/29 03:29:04;;;;;;;44.70;9.80;;;16.90;99.90;;;;;;5050065;28;22053;-83
2021/06/29 03:31:32;;;;;;;48.58;9.95;;;17.00;99.90;;;;;;5055342;28;20070;-83
2021/06/29 03:33:58;;;;;;;46.63;9.68;;;16.90;99.90;;;;;;5051913;28;20039;-83
2021/06/29 03:36:24;;;;;;;37.13;8.48;;;17.00;99.90;;;;;;5051613;28;20068;-83
2021/06/29 03:38:50;;;;;;;45.67;9.95;;;17.00;99.90;;;;;;5031359;28;20041;-83
2021/06/29 03:41:16;;;;;;;43.75;9.60;;;17.00;99.90;;;;;;5048205;28;21914;-84
2021/06/29 03:43:43;;;;;;;53.10;9.52;;;16.90;99.90;;;;;;5040640;28;20091;-83
2021/06/29 03:46:09;;;;;;;50.75;10.13;;;16.90;99.90;;;;;;5050777;28;20522;-83
2021/06/29 03:48:35;;;;;;;48.42;9.68;;;16.80;99.90;;;;;;5053857;28;20147;-84
2021/06/29 03:51:01;;;;;;;47.08;9.05;;;16.90;99.90;;;;;;5048436;28;20397;-83
2021/06/29 03:53:27;;;;;;;42.63;10.20;;;17.00;99.90;;;;;;5049929;28;20066;-84
2021/06/29 03:55:53;;;;;;;50.20;9.55;;;17.00;99.90;;;;;;5054272;28;20037;-83
2021/06/29 03:58:20;;;;;;;49.88;10.43;;;16.90;99.90;;;;;;5045348;28;20124;-84
2021/06/29 04:00:46;;;;;;;45.92;8.98;;;16.90;99.90;;;;;;5049596;28;20333;-83
2021/06/29 04:03:12;;;;;;;52.65;10.30;;;16.90;99.90;;;;;;5049669;28;20032;-84
2021/06/29 04:05:38;;;;;;;41.08;9.73;;;17.00;99.90;;;;;;5051541;28;20439;-84
2021/06/29 04:08:05;;;;;;;41.47;9.43;;;16.90;99.90;;;;;;5049143;28;20063;-83
2021/06/29 04:10:31;;;;;;;47.83;9.52;;;16.90;99.90;;;;;;5051017;28;20464;-83
2021/06/29 04:13:00;;;;;;;47.58;9.65;;;16.90;99.90;;;;;;5049452;28;20390;-83
2021/06/29 04:15:27;;;;;;;44.33;9.70;;;16.90;99.90;;;;;;5043220;28;20033;-83
2021/06/29 04:17:52;;;;;;;48.88;9.23;;;16.90;99.90;;;;;;5031907;28;20045;-83
2021/06/29 04:20:19;;;;;;;40.92;9.02;;;16.90;99.90;;;;;;5052306;28;20051;-84
2021/06/29 04:22:46;;;;;;;44.47;10.23;;;17.00;99.90;;;;;;5058604;28;20029;-83
2021/06/29 04:25:12;;;;;;;50.78;8.93;;;17.00;99.90;;;;;;5046864;28;20542;-83
2021/06/29 04:27:38;;;;;;;33.90;8.75;;;17.00;99.90;;;;;;5052550;28;20036;-83
2021/06/29 04:30:06;;;;;;;40.83;8.52;;;17.00;99.90;;;;;;5049009;28;20456;-83
2021/06/29 04:32:32;;;;;;;47.40;9.48;;;17.00;99.90;;;;;;5050957;28;20037;-83
2021/06/29 04:35:17;;;;;;;47.42;10.07;;;17.00;99.90;;;;;;5034854;28;20048;-83
2021/06/29 04:37:43;;;;;;;40.03;9.05;;;17.00;99.90;;;;;;5036341;28;20140;-83
2021/06/29 04:40:09;;;;;;;40.65;9.43;;;17.00;99.90;;;;;;5050143;28;20029;-83
2021/06/29 04:42:36;;;;;;;44.13;9.45;;;17.10;99.90;;;;;;5035787;28;20044;-83
2021/06/29 04:45:03;;;;;;;36.25;9.48;;;17.10;99.90;;;;;;5048093;28;20061;-83
2021/06/29 04:47:35;;;;;;;41.30;9.50;;;17.00;99.90;;;;;;5053706;28;20047;-83
2021/06/29 04:50:03;;;;;;;44.58;9.02;;;17.00;99.90;;;;;;5048688;28;20048;-83
2021/06/29 04:52:29;;;;;;;40.95;9.35;;;17.10;99.90;;;;;;5057324;28;20120;-82
2021/06/29 04:54:58;;;;;;;34.78;7.97;;;17.10;99.90;;;;;;5049243;28;20128;-85
2021/06/29 04:57:34;;;;;;;29.50;7.30;;;17.30;99.90;;;;;;5046053;28;20048;-86
2021/06/29 05:00:06;;;;;;;41.10;8.55;;;17.30;99.90;;;;;;5046168;28;20033;-86
2021/06/29 05:02:33;;;;;;;38.38;8.18;;;17.30;99.90;;;;;;5049597;28;20082;-87
2021/06/29 05:04:59;;;;;;;39.53;9.23;;;17.30;99.90;;;;;;5050262;28;20052;-85
2021/06/29 05:07:25;;;;;;;44.13;8.75;;;17.30;99.90;;;;;;5048313;28;20416;-85
2021/06/29 05:09:51;;;;;;;30.38;7.65;;;17.20;99.90;;;;;;5045863;28;20382;-87
2021/06/29 05:12:17;;;;;;;37.63;8.20;;;17.20;99.90;;;;;;5048078;28;20447;-87
2021/06/29 05:14:46;;;;;;;34.35;8.48;;;17.20;99.90;;;;;;5051606;28;20045;-85
2021/06/29 05:17:12;;;;;;;26.88;7.85;;;17.20;99.90;;;;;;5032344;28;21747;-88
2021/06/29 05:19:38;;;;;;;39.10;7.60;;;17.20;99.90;;;;;;5052203;28;20059;-89
2021/06/29 05:22:07;;;;;;;34.30;7.97;;;17.20;99.90;;;;;;5034925;28;20075;-85
2021/06/29 05:24:34;;;;;;;28.67;8.15;;;17.10;99.90;;;;;;5031874;28;20036;-88
2021/06/29 05:27:00;;;;;;;26.70;7.30;;;17.20;99.90;;;;;;5029939;28;20064;-87
2021/06/29 05:29:26;;;;;;;29.95;8.13;;;17.20;99.90;;;;;;5065775;28;20056;-84
2021/06/29 05:32:10;;;;;;;37.45;7.50;;;17.10;99.90;;;;;;5050923;28;20475;-81
2021/06/29 05:34:37;;;;;;;30.92;7.55;;;17.20;99.90;;;;;;5045068;28;20045;-81
2021/06/29 05:37:03;;;;;;;33.60;8.00;;;17.10;99.90;;;;;;5071378;28;20554;-82
2021/06/29 05:39:32;;;;;;;34.03;7.78;;;17.20;99.90;;;;;;5049469;28;20364;-87
2021/06/29 05:41:57;;;;;;;39.05;9.13;;;17.20;99.90;;;;;;5077617;28;20380;-84
2021/06/29 05:44:23;;;;;;;29.75;8.10;;;17.20;99.90;;;;;;5054633;28;20045;-83
2021/06/29 05:46:52;;;;;;;30.38;8.13;;;17.20;99.90;;;;;;5051389;28;20140;-90
2021/06/29 05:49:18;;;;;;;42.92;10.10;;;17.10;99.90;;;;;;5053529;28;20041;-85
2021/06/29 05:51:46;;;;;;;40.58;8.98;;;17.20;99.90;;;;;;5047814;28;20033;-89
2021/06/29 05:54:12;;;;;;;34.15;8.20;;;17.20;99.90;;;;;;5047610;28;20049;-84
2021/06/29 05:56:40;;;;;;;36.28;9.68;;;17.20;99.90;;;;;;5047976;28;20063;-83
2021/06/29 05:59:06;;;;;;;34.88;8.93;;;17.20;99.90;;;;;;5045864;28;20059;-83
2021/06/29 06:01:31;;;;;;;35.17;9.15;;;17.20;99.90;;;;;;5045853;28;20041;-81
2021/06/29 06:03:57;;;;;;;38.15;10.10;;;17.10;99.90;;;;;;5050150;28;20040;-86
2021/06/29 06:06:23;;;;;;;38.90;9.30;;;17.20;99.90;;;;;;5050447;28;20094;-85
2021/06/29 06:08:49;;;;;;;38.67;10.07;;;17.20;99.90;;;;;;5025254;28;20047;-81
2021/06/29 06:11:15;;;;;;;40.80;10.90;;;17.20;99.90;;;;;;5046794;28;20545;-84
2021/06/29 06:17:58;;;;;;;49.33;10.43;;;17.20;99.90;;;;;;5070618;28;20086;-83
2021/06/29 06:20:35;;;;;;;51.28;11.63;;;17.20;99.90;;;;;;5046089;28;20140;-83
2021/06/29 06:23:02;;;;;;;44.45;10.80;;;17.20;99.90;;;;;;5050391;28;20119;-85
2021/06/29 06:25:28;;;;;;;34.35;10.13;;;17.30;99.90;;;;;;5049260;28;20036;-85
2021/06/29 06:27:54;;;;;;;43.03;10.73;;;17.30;99.90;;;;;;5050961;28;20037;-83
2021/06/29 06:30:20;;;;;;;43.03;10.85;;;17.30;99.90;;;;;;5054914;28;20037;-85
2021/06/29 06:32:46;;;;;;;48.35;11.05;;;17.40;99.90;;;;;;5050022;28;20071;-83
2021/06/29 06:35:12;;;;;;;46.63;10.15;;;17.40;99.90;;;;;;5065792;28;20162;-82
2021/06/29 06:37:37;;;;;;;53.30;11.38;;;17.40;99.90;;;;;;5057598;28;20502;-83
2021/06/29 06:40:05;;;;;;;47.70;11.38;;;17.40;99.90;;;;;;5052843;28;20116;-84
2021/06/29 06:42:31;;;;;;;46.28;11.23;;;17.40;99.90;;;;;;5048197;28;20568;-83
2021/06/29 06:44:57;;;;;;;48.50;10.88;;;17.50;99.90;;;;;;5054109;28;20036;-83
2021/06/29 06:47:24;;;;;;;52.75;11.82;;;17.40;99.90;;;;;;5053957;28;20041;-84
2021/06/29 06:49:50;;;;;;;42.17;10.32;;;17.50;99.90;;;;;;5052615;28;20048;-83
2021/06/29 06:52:17;;;;;;;52.05;11.57;;;17.60;99.90;;;;;;5049528;28;20037;-83
2021/06/29 06:54:42;;;;;;;48.72;11.40;;;17.60;99.90;;;;;;5052038;28;20044;-83
2021/06/29 06:57:09;;;;;;;41.88;11.95;;;17.60;99.90;;;;;;5050113;28;20044;-83
2021/06/29 06:59:35;;;;;;;47.55;11.85;;;17.50;99.90;;;;;;5057650;28;20536;-83
2021/06/29 07:02:01;;;;;;;44.58;11.60;;;17.60;99.90;;;;;;5052278;28;20090;-84
2021/06/29 07:04:27;;;;;;;55.35;12.75;;;17.60;99.90;;;;;;5049870;28;20162;-82
2021/06/29 07:06:53;;;;;;;48.95;11.85;;;17.60;99.90;;;;;;5051481;28;20079;-83
2021/06/29 07:09:19;;;;;;;41.83;11.95;;;17.60;99.90;;;;;;5047241;28;20195;-82
2021/06/29 07:11:45;;;;;;;44.22;12.95;;;17.60;99.90;;;;;;5051227;28;20044;-82
2021/06/29 07:14:11;;;;;;;42.58;13.07;;;17.50;99.90;;;;;;5030307;28;20045;-82
2021/06/29 07:16:38;;;;;;;46.65;14.07;;;17.50;99.90;;;;;;5030720;28;20370;-82
2021/06/29 07:19:04;;;;;;;55.85;14.25;;;17.50;99.90;;;;;;5051975;28;20127;-83
2021/06/29 07:21:30;;;;;;;49.45;13.90;;;17.60;99.90;;;;;;5066027;28;20058;-83
2021/06/29 07:23:56;;;;;;;53.47;13.52;;;17.60;99.90;;;;;;5049704;28;20349;-81
2021/06/29 07:26:23;;;;;;;66.03;14.48;;;17.60;99.90;;;;;;5048982;28;20048;-83
2021/06/29 07:28:49;;;;;;;49.05;14.43;;;17.70;99.90;;;;;;5050980;28;20087;-83
2021/06/29 07:31:18;;;;;;;51.45;14.57;;;17.80;99.90;;;;;;5048412;28;20053;-82
2021/06/29 07:33:45;;;;;;;49.13;14.88;;;17.80;99.90;;;;;;5047817;28;20079;-84
2021/06/29 07:36:12;;;;;;;42.40;13.10;;;18.00;99.90;;;;;;5047308;28;20555;-82
2021/06/29 07:38:40;;;;;;;43.67;12.75;;;18.00;99.90;;;;;;5055020;28;20159;-84
2021/06/29 07:41:06;;;;;;;47.05;13.68;;;18.10;99.90;;;;;;5055263;28;20043;-81
2021/06/29 07:43:32;;;;;;;54.50;15.43;;;18.20;99.90;;;;;;5055362;28;20024;-83
2021/06/29 07:45:58;;;;;;;50.03;14.55;;;18.20;99.90;;;;;;5046380;28;20842;-81
2021/06/29 07:48:24;;;;;;;48.25;14.82;;;18.30;99.90;;;;;;5053642;28;20621;-82
2021/06/29 07:50:51;;;;;;;52.10;15.07;;;18.20;99.90;;;;;;5051034;28;20045;-83
2021/06/29 07:53:16;;;;;;;48.70;16.45;;;18.20;99.90;;;;;;5054865;28;20534;-82
2021/06/29 07:55:42;;;;;;;57.75;17.35;;;18.20;99.90;;;;;;5052153;28;20033;-82
2021/06/29 07:58:09;;;;;;;47.55;16.63;;;18.30;99.90;;;;;;5044306;28;20424;-81
2021/06/29 08:00:36;;;;;;;56.80;18.42;;;18.30;99.90;;;;;;5051205;28;20029;-80
2021/06/29 08:03:04;;;;;;;71.68;19.00;;;18.30;99.90;;;;;;5047549;28;20144;-82
2021/06/29 08:05:30;;;;;;;53.55;15.73;;;18.40;99.90;;;;;;5048566;28;20041;-80
2021/06/29 08:07:57;;;;;;;48.78;15.18;;;18.40;99.90;;;;;;5051070;28;20060;-83
2021/06/29 08:10:22;;;;;;;54.60;16.25;;;18.60;99.90;;;;;;5043172;28;20029;-81
2021/06/29 08:12:49;;;;;;;54.25;17.35;;;18.60;99.90;;;;;;5045936;28;20055;-82
2021/06/29 08:15:16;;;;;;;55.53;17.13;;;18.60;99.90;;;;;;5051201;28;20116;-81
2021/06/29 08:17:44;;;;;;;58.72;17.45;;;18.60;99.90;;;;;;5046801;28;20083;-80
2021/06/29 08:20:11;;;;;;;60.17;17.27;;;18.70;99.90;;;;;;5050684;28;20139;-79
2021/06/29 08:22:37;;;;;;;57.67;16.63;;;18.90;99.90;;;;;;5056044;28;20111;-79
2021/06/29 08:25:04;;;;;;;58.92;16.15;;;18.80;99.90;;;;;;5050383;28;20449;-81
2021/06/29 08:27:30;;;;;;;59.97;18.23;;;18.80;99.90;;;;;;5063116;28;20055;-82
2021/06/29 08:29:58;;;;;;;58.60;18.00;;;18.80;99.90;;;;;;5044408;28;20040;-81
2021/06/29 08:32:25;;;;;;;52.85;18.73;;;18.90;99.90;;;;;;5064697;28;20032;-79
2021/06/29 08:34:51;;;;;;;61.55;17.73;;;19.00;99.90;;;;;;5051184;28;20087;-82
2021/06/29 08:37:17;;;;;;;49.25;16.05;;;19.00;99.90;;;;;;5063198;28;20095;-80
2021/06/29 08:39:43;;;;;;;62.20;19.45;;;19.00;99.90;;;;;;5091882;28;20164;-81
2021/06/29 08:42:10;;;;;;;66.82;19.73;;;18.90;99.90;;;;;;5076109;28;20073;-78
2021/06/29 08:44:36;;;;;;;52.08;18.67;;;18.80;99.90;;;;;;5089520;28;20160;-77
2021/06/29 08:47:02;;;;;;;63.33;19.92;;;18.90;99.90;;;;;;5053528;28;21304;-79
2021/06/29 08:49:28;;;;;;;55.85;20.33;;;19.00;99.90;;;;;;5078156;28;20052;-77
2021/06/29 08:51:57;;;;;;;51.70;18.55;;;19.00;99.90;;;;;;5071311;28;20388;-79
2021/06/29 08:54:23;;;;;;;59.42;20.52;;;19.10;99.90;;;;;;5064381;28;20048;-80
2021/06/29 08:56:49;;;;;;;59.95;19.77;;;19.20;99.90;;;;;;5066247;28;20060;-80
2021/06/29 08:59:15;;;;;;;56.40;20.42;;;19.30;99.90;;;;;;5051941;28;20469;-80
2021/06/29 09:01:41;;;;;;;55.80;19.00;;;19.40;99.90;;;;;;5050056;28;20524;-80
2021/06/29 09:04:06;;;;;;;51.20;19.38;;;19.50;99.90;;;;;;5048936;28;20044;-81
2021/06/29 09:06:41;;;;;;;53.92;20.95;;;19.40;99.90;;;;;;5051820;28;20440;-81
2021/06/29 09:09:27;;;;;;;53.55;20.25;;;19.40;99.90;;;;;;5050841;28;20167;-80
2021/06/29 09:11:54;;;;;;;54.83;21.05;;;19.60;99.90;;;;;;5049586;28;20450;-80
2021/06/29 09:14:31;;;;;;;53.55;20.90;;;19.60;99.90;;;;;;5050474;28;20037;-81
2021/06/29 09:17:19;;;;;;;56.33;20.48;;;19.80;99.90;;;;;;5043042;28;20045;-80
2021/06/29 09:19:45;;;;;;;48.67;19.30;;;20.00;99.90;;;;;;5053910;28;20041;-80
2021/06/29 09:22:31;;;;;;;53.38;21.15;;;19.90;99.90;;;;;;5052352;28;20381;-81
2021/06/29 09:24:58;;;;;;;56.83;21.20;;;19.80;99.90;;;;;;5043483;28;20041;-81
2021/06/29 09:27:44;;;;;;;56.28;19.95;;;19.70;99.90;;;;;;5068471;28;20448;-81
2021/06/29 09:30:31;;;;;;;54.53;20.20;;;19.60;99.90;;;;;;5039119;28;20094;-82
2021/06/29 09:33:02;;;;;;;51.60;20.60;;;19.70;99.90;;;;;;5064947;28;20555;-81
2021/06/29 09:35:29;;;;;;;44.30;18.35;;;19.50;99.90;;;;;;5051993;28;20052;-82
2021/06/29 09:37:56;;;;;;;56.22;20.65;;;19.40;99.90;;;;;;5047324;28;20052;-81
2021/06/29 09:40:24;;;;;;;45.28;18.83;;;19.60;99.90;;;;;;5070030;28;20048;-80
2021/06/29 09:42:51;;;;;;;54.38;19.65;;;19.60;99.90;;;;;;5044620;28;20384;-81
2021/06/29 09:45:35;;;;;;;52.15;19.10;;;19.80;99.90;;;;;;5052192;28;20052;-80
2021/06/29 09:48:04;;;;;;;46.17;18.45;;;19.90;99.90;;;;;;5044450;28;20076;-78
2021/06/29 09:50:52;;;;;;;51.55;19.48;;;20.10;99.90;;;;;;5047415;28;20044;-79
2021/06/29 09:53:27;;;;;;;40.47;18.17;;;20.00;99.90;;;;;;5044893;28;20148;-80
2021/06/29 09:55:59;;;;;;;49.58;18.98;;;20.00;99.90;;;;;;5040027;28;20439;-79
2021/06/29 09:58:26;;;;;;;52.30;17.15;;;20.00;99.90;;;;;;5063588;28;20067;-79
2021/06/29 10:00:58;;;;;;;43.70;17.70;;;19.90;99.90;;;;;;5033231;28;20087;-79
2021/06/29 10:03:29;;;;;;;39.47;17.95;;;19.90;99.90;;;;;;5054851;28;20069;-80
2021/06/29 10:05:58;;;;;;;43.58;17.92;;;19.90;99.90;;;;;;5046014;28;20064;-80
2021/06/29 10:08:32;;;;;;;52.95;19.48;;;20.00;99.90;;;;;;5047937;28;20094;-79
2021/06/29 10:11:18;;;;;;;39.53;18.10;;;19.70;99.90;;;;;;5062897;28;20135;-79
2021/06/29 10:13:49;;;;;;;43.08;16.88;;;19.80;99.90;;;;;;5048632;28;20083;-80
2021/06/29 10:16:19;;;;;;;53.55;19.35;;;20.00;99.90;;;;;;5048448;28;20033;-79
2021/06/29 10:18:54;;;;;;;53.20;18.20;;;19.90;99.90;;;;;;5053195;28;20052;-79
2021/06/29 10:21:24;;;;;;;45.90;17.92;;;19.80;99.90;;;;;;5046252;28;20047;-80
2021/06/29 10:23:53;;;;;;;48.55;19.08;;;19.80;99.90;;;;;;5045380;28;20074;-80
2021/06/29 10:26:20;;;;;;;52.72;18.73;;;19.60;99.90;;;;;;5063606;28;20076;-77
2021/06/29 10:28:47;;;;;;;46.38;17.83;;;19.70;99.90;;;;;;5051063;28;20651;-79
2021/06/29 10:31:22;;;;;;;43.17;18.10;;;19.70;99.90;;;;;;5046154;28;20144;-80
2021/06/29 10:33:49;;;;;;;56.97;17.83;;;19.70;99.90;;;;;;5047308;28;20049;-80
2021/06/29 10:36:16;;;;;;;47.88;17.63;;;19.70;99.90;;;;;;5046505;28;20044;-79
2021/06/29 10:38:42;;;;;;;46.28;18.52;;;19.70;99.90;;;;;;5065599;28;20057;-78
2021/06/29 10:41:10;;;;;;;54.10;19.20;;;19.60;99.90;;;;;;5045256;28;20099;-78
2021/06/29 10:43:38;;;;;;;59.97;18.88;;;19.60;99.90;;;;;;5047259;28;20041;-79
2021/06/29 10:46:04;;;;;;;55.47;19.00;;;19.40;99.90;;;;;;5043863;28;20095;-78
2021/06/29 10:48:31;;;;;;;52.65;18.38;;;19.30;99.90;;;;;;5046355;28;20579;-81
2021/06/29 10:50:59;;;;;;;57.13;18.40;;;19.30;99.90;;;;;;5033769;28;20056;-81
2021/06/29 10:53:41;;;;;;;52.30;18.48;;;19.40;99.90;;;;;;5045131;28;20052;-81
2021/06/29 10:56:16;;;;;;;44.90;17.88;;;19.30;99.90;;;;;;5070702;28;20090;-81
2021/06/29 10:58:47;;;;;;;54.25;18.33;;;19.30;99.90;;;;;;5063197;28;20046;-81
2021/06/29 11:01:26;;;;;;;50.20;18.52;;;19.20;99.90;;;;;;5043560;28;20056;-82
2021/06/29 11:03:54;;;;;;;49.17;18.73;;;19.20;99.90;;;;;;5059736;28;20033;-81
2021/06/29 11:06:34;;;;;;;46.42;18.98;;;19.20;99.90;;;;;;5033651;28;20040;-81
2021/06/29 11:09:01;;;;;;;54.90;19.63;;;19.20;99.90;;;;;;5039997;28;20033;-81
2021/06/29 11:11:34;;;;;;;58.60;19.02;;;19.20;99.90;;;;;;5066705;28;20048;-81
2021/06/29 11:14:00;;;;;;;67.90;20.67;;;19.20;99.90;;;;;;5059726;28;20045;-82
2021/06/29 11:16:55;;;;;;;56.45;19.33;;;19.10;99.90;;;;;;5049726;28;20056;-82
2021/06/29 11:19:21;;;;;;;;;;;19.20;99.90;;;;;;5048309;28;20049;-81
2021/06/29 11:21:48;;;;;;;59.03;21.15;;;19.10;99.90;;;;;;5047005;28;19948;-82
2021/06/29 11:24:40;;;;;;;62.88;20.80;;;19.20;99.90;;;;;;5066926;28;20404;-82
2021/06/29 11:27:06;;;;;;;56.95;19.95;;;19.20;99.90;;;;;;5040413;28;20045;-82
2021/06/29 11:29:44;;;;;;;64.20;22.42;;;19.20;99.90;;;;;;5056926;28;20032;-82
2021/06/29 11:32:29;;;;;;;54.38;21.48;;;19.20;99.90;;;;;;5054459;28;20103;-82
2021/06/29 11:38:41;;;;;;;53.65;21.17;;;19.40;99.90;;;;;;5053281;28;20056;-82
2021/06/29 11:41:25;;;;;;;57.72;21.20;;;19.50;99.90;;;;;;5050195;28;20381;-82
2021/06/29 11:43:55;;;;;;;51.28;21.35;;;19.60;99.90;;;;;;5044500;28;20114;-82
2021/06/29 11:46:52;;;;;;;57.90;20.88;;;19.50;99.90;;;;;;5041486;28;20044;-82
2021/06/29 11:49:38;;;;;;;69.22;22.80;;;19.60;99.90;;;;;;5047171;28;20380;-81
2021/06/29 11:52:15;;;;;;;72.10;22.92;;;19.60;99.90;;;;;;5067051;28;20420;-80
2021/06/29 11:54:53;;;;;;;81.28;25.00;;;19.60;99.90;;;;;;5048716;28;20051;-83
2021/06/29 11:57:39;;;;;;;87.32;27.42;;;19.70;99.90;;;;;;5051227;28;20059;-83
2021/06/29 12:00:18;;;;;;;81.47;24.58;;;19.60;99.90;;;;;;5068468;28;20172;-82
2021/06/29 12:02:44;;;;;;;79.15;23.30;;;19.70;99.90;;;;;;5045433;28;20044;-82
2021/06/29 12:05:17;;;;;;;76.93;24.00;;;19.70;99.90;;;;;;5049655;28;20120;-83
2021/06/29 12:07:45;;;;;;;89.07;25.55;;;19.70;99.90;;;;;;5047231;28;20493;-83
2021/06/29 12:10:15;;;;;;;79.78;24.70;;;19.60;99.90;;;;;;5049462;28;20029;-82
2021/06/29 12:12:43;;;;;;;83.57;24.67;;;19.60;99.90;;;;;;5051461;28;20052;-82
2021/06/29 12:15:14;;;;;;;90.82;25.73;;;19.60;99.90;;;;;;5043179;28;20071;-81
2021/06/29 12:17:49;;;;;;;78.60;23.77;;;19.60;99.90;;;;;;5074914;28;20036;-82
2021/06/29 12:20:18;;;;;;;81.25;25.55;;;19.70;99.90;;;;;;5087940;28;20135;-82
2021/06/29 12:22:45;;;;;;;67.05;21.83;;;19.70;99.90;;;;;;5078914;28;20021;-82
2021/06/29 12:25:27;;;;;;;73.75;23.13;;;19.50;99.90;;;;;;5074321;28;20041;-82
2021/06/29 12:27:56;;;;;;;80.40;23.30;;;19.40;99.90;;;;;;5042973;28;20065;-82
2021/06/29 12:30:39;;;;;;;70.07;21.80;;;19.40;99.90;;;;;;5059844;28;20105;-82
2021/06/29 12:33:20;;;;;;;77.97;22.50;;;19.30;99.90;;;;;;5048803;28;20049;-82
2021/06/29 12:35:50;;;;;;;80.35;22.60;;;19.40;99.90;;;;;;5049468;28;20419;-82
2021/06/29 12:38:24;;;;;;;73.63;21.38;;;19.40;99.90;;;;;;5051968;28;20090;-82
2021/06/29 12:41:00;;;;;;;77.57;22.33;;;19.20;99.90;;;;;;5057764;28;20063;-83
2021/06/29 12:43:38;;;;;;;75.68;21.90;;;19.30;99.90;;;;;;5050603;28;20044;-82
2021/06/29 12:46:28;;;;;;;67.38;22.70;;;19.10;99.90;;;;;;5046504;28;20069;-82
2021/06/29 12:49:09;;;;;;;78.55;23.95;;;19.10;99.90;;;;;;5051922;28;20063;-82